sensor_id;sensor_type;location;lat;lon;timestamp;pressure;altitude;pressure_sealevel;temperature;humidity
20043;BME280;10182;52.896;6.496;2023-04-25T00:01:03;100795.97;;;5.37;100.00
20043;BME280;10182;52.896;6.496;2023-04-25T00:06:07;100804.13;;;5.24;100.00
20043;BME280;10182;52.896;6.496;2023-04-25T00:11:09;100816.50;;;5.21;100.00
20043;BME280;10182;52.896;6.496;2023-04-25T00:16:10;100810.47;;;5.16;100.00
20043;BME280;10182;52.896;6.496;2023-04-25T00:21:16;100813.16;;;5.14;100.00
20043;BME280;10182;52.896;6.496;2023-04-25T00:26:18;100817.47;;;5.15;100.00
20043;BME280;10182;52.896;6.496;2023-04-25T00:31:21;100817.63;;;5.09;100.00
20043;BME280;10182;52.896;6.496;2023-04-25T00:36:24;100818.44;;;5.13;100.00
20043;BME280;10182;52.896;6.496;2023-04-25T00:41:26;100817.47;;;5.15;100.00
20043;BME280;10182;52.896;6.496;2023-04-25T00:46:28;100830.56;;;5.18;100.00
20043;BME280;10182;52.896;6.496;2023-04-25T00:51:32;100834.16;;;5.14;100.00
20043;BME280;10182;52.896;6.496;2023-04-25T00:56:34;100835.09;;;5.12;100.00
20043;BME280;10182;52.896;6.496;2023-04-25T01:01:37;100828.94;;;5.13;100.00
20043;BME280;10182;52.896;6.496;2023-04-25T01:06:41;100834.28;;;5.08;100.00
20043;BME280;10182;52.896;6.496;2023-04-25T01:11:43;100833.75;;;4.92;100.00
20043;BME280;10182;52.896;6.496;2023-04-25T01:16:44;100831.13;;;4.92;100.00
20043;BME280;10182;52.896;6.496;2023-04-25T01:21:48;100834.81;;;4.83;100.00
20043;BME280;10182;52.896;6.496;2023-04-25T01:26:50;100846.16;;;4.84;100.00
20043;BME280;10182;52.896;6.496;2023-04-25T01:31:52;100838.31;;;4.82;100.00
20043;BME280;10182;52.896;6.496;2023-04-25T01:36:55;100844.50;;;4.81;100.00
20043;BME280;10182;52.896;6.496;2023-04-25T01:41:58;100843.63;;;4.81;100.00
20043;BME280;10182;52.896;6.496;2023-04-25T01:47:00;100853.25;;;4.80;100.00
20043;BME280;10182;52.896;6.496;2023-04-25T01:52:04;100854.16;;;4.79;100.00
20043;BME280;10182;52.896;6.496;2023-04-25T01:57:05;100855.91;;;4.79;100.00
20043;BME280;10182;52.896;6.496;2023-04-25T02:02:07;100849.69;;;4.84;100.00
20043;BME280;10182;52.896;6.496;2023-04-25T02:07:10;100855.91;;;4.79;100.00
20043;BME280;10182;52.896;6.496;2023-04-25T02:12:11;100856.75;;;4.81;100.00
20043;BME280;10182;52.896;6.496;2023-04-25T02:17:13;100855.75;;;4.86;100.00
20043;BME280;10182;52.896;6.496;2023-04-25T02:22:17;100860.94;;;4.88;100.00
20043;BME280;10182;52.896;6.496;2023-04-25T02:27:19;100861.91;;;4.85;100.00
20043;BME280;10182;52.896;6.496;2023-04-25T02:32:21;100861.13;;;4.80;100.00
20043;BME280;10182;52.896;6.496;2023-04-25T02:37:24;100855.19;;;4.72;100.00
20043;BME280;10182;52.896;6.496;2023-04-25T02:42:26;100864.91;;;4.67;100.00
20043;BME280;10182;52.896;6.496;2023-04-25T02:47:27;100862.31;;;4.65;100.00
20043;BME280;10182;52.896;6.496;2023-04-25T02:52:30;100869.38;;;4.62;100.00
20043;BME280;10182;52.896;6.496;2023-04-25T02:57:32;100863.31;;;4.60;100.00
20043;BME280;10182;52.896;6.496;2023-04-25T03:02:34;100878.19;;;4.57;100.00
20043;BME280;10182;52.896;6.496;2023-04-25T03:07:37;100875.63;;;4.54;100.00
20043;BME280;10182;52.896;6.496;2023-04-25T03:12:39;100888.78;;;4.53;100.00
20043;BME280;10182;52.896;6.496;2023-04-25T03:17:41;100896.81;;;4.45;100.00
20043;BME280;10182;52.896;6.496;2023-04-25T03:22:44;100921.25;;;3.97;100.00
20043;BME280;10182;52.896;6.496;2023-04-25T03:27:47;100921.44;;;3.85;100.00
20043;BME280;10182;52.896;6.496;2023-04-25T03:32:49;100902.28;;;3.83;100.00
20043;BME280;10182;52.896;6.496;2023-04-25T03:37:52;100901.56;;;3.70;100.00
20043;BME280;10182;52.896;6.496;2023-04-25T03:42:53;100904.03;;;3.81;100.00
20043;BME280;10182;52.896;6.496;2023-04-25T03:47:55;100896.06;;;3.88;100.00
20043;BME280;10182;52.896;6.496;2023-04-25T03:52:58;100908.22;;;3.93;100.00
20043;BME280;10182;52.896;6.496;2023-04-25T03:58:00;100913.41;;;3.96;100.00
20043;BME280;10182;52.896;6.496;2023-04-25T04:03:01;100917.69;;;4.00;100.00
20043;BME280;10182;52.896;6.496;2023-04-25T04:08:04;100922.19;;;3.93;100.00
20043;BME280;10182;52.896;6.496;2023-04-25T04:13:06;100932.59;;;3.96;100.00
20043;BME280;10182;52.896;6.496;2023-04-25T04:18:08;100934.47;;;3.88;100.00
20043;BME280;10182;52.896;6.496;2023-04-25T04:23:12;100938.84;;;3.89;100.00
20043;BME280;10182;52.896;6.496;2023-04-25T04:28:14;100944.06;;;3.90;100.00
20043;BME280;10182;52.896;6.496;2023-04-25T04:33:16;100960.59;;;3.96;100.00
20043;BME280;10182;52.896;6.496;2023-04-25T04:38:20;100978.00;;;4.00;100.00
20043;BME280;10182;52.896;6.496;2023-04-25T04:43:22;100957.88;;;4.02;100.00
20043;BME280;10182;52.896;6.496;2023-04-25T04:48:24;100965.06;;;3.89;100.00
20043;BME280;10182;52.896;6.496;2023-04-25T04:53:27;100961.53;;;3.92;100.00
20043;BME280;10182;52.896;6.496;2023-04-25T04:58:29;100972.84;;;3.92;100.00
20043;BME280;10182;52.896;6.496;2023-04-25T05:03:31;100983.25;;;4.00;100.00
20043;BME280;10182;52.896;6.496;2023-04-25T05:08:34;100991.59;;;4.23;100.00
20043;BME280;10182;52.896;6.496;2023-04-25T05:13:36;100997.41;;;4.43;100.00
20043;BME280;10182;52.896;6.496;2023-04-25T05:18:38;101007.88;;;4.43;100.00
20043;BME280;10182;52.896;6.496;2023-04-25T05:23:41;101005.03;;;4.58;100.00
20043;BME280;10182;52.896;6.496;2023-04-25T05:28:43;101006.47;;;4.74;100.00
20043;BME280;10182;52.896;6.496;2023-04-25T05:33:44;101009.69;;;4.89;100.00
20043;BME280;10182;52.896;6.496;2023-04-25T05:38:47;101013.03;;;4.97;100.00
20043;BME280;10182;52.896;6.496;2023-04-25T05:43:49;101021.88;;;4.93;100.00
20043;BME280;10182;52.896;6.496;2023-04-25T05:48:51;101027.28;;;4.85;100.00
20043;BME280;10182;52.896;6.496;2023-04-25T05:53:54;101039.44;;;4.88;100.00
20043;BME280;10182;52.896;6.496;2023-04-25T05:58:56;101031.44;;;4.96;100.00
20043;BME280;10182;52.896;6.496;2023-04-25T06:03:57;101034.78;;;5.04;100.00
20043;BME280;10182;52.896;6.496;2023-04-25T06:09:01;101036.59;;;5.02;100.00
20043;BME280;10182;52.896;6.496;2023-04-25T06:14:02;101039.13;;;5.06;100.00
20043;BME280;10182;52.896;6.496;2023-04-25T06:19:04;101045.22;;;5.08;100.00
20043;BME280;10182;52.896;6.496;2023-04-25T06:24:07;101048.72;;;5.09;100.00
20043;BME280;10182;52.896;6.496;2023-04-25T06:29:09;101048.22;;;4.88;100.00
20043;BME280;10182;52.896;6.496;2023-04-25T06:34:11;101054.59;;;5.22;100.00
20043;BME280;10182;52.896;6.496;2023-04-25T06:39:14;101052.25;;;5.52;100.00
20043;BME280;10182;52.896;6.496;2023-04-25T06:44:15;101061.00;;;5.95;100.00
20043;BME280;10182;52.896;6.496;2023-04-25T06:49:17;101059.25;;;5.93;100.00
20043;BME280;10182;52.896;6.496;2023-04-25T06:54:20;101079.19;;;5.63;100.00
20043;BME280;10182;52.896;6.496;2023-04-25T06:59:22;101081.69;;;5.68;100.00
20043;BME280;10182;52.896;6.496;2023-04-25T07:04:23;101080.41;;;6.28;100.00
20043;BME280;10182;52.896;6.496;2023-04-25T07:09:26;101083.13;;;6.25;100.00
20043;BME280;10182;52.896;6.496;2023-04-25T07:14:28;101082.03;;;5.93;100.00
20043;BME280;10182;52.896;6.496;2023-04-25T07:19:30;101087.47;;;5.85;100.00
20043;BME280;10182;52.896;6.496;2023-04-25T07:24:33;101088.31;;;5.86;100.00
20043;BME280;10182;52.896;6.496;2023-04-25T07:29:35;101099.59;;;5.92;100.00
20043;BME280;10182;52.896;6.496;2023-04-25T07:34:37;101093.06;;;6.10;100.00
20043;BME280;10182;52.896;6.496;2023-04-25T07:39:40;101103.00;;;6.37;100.00
20043;BME280;10182;52.896;6.496;2023-04-25T07:44:42;101105.34;;;6.49;100.00
20043;BME280;10182;52.896;6.496;2023-04-25T07:49:44;101121.13;;;6.49;100.00
20043;BME280;10182;52.896;6.496;2023-04-25T07:54:47;101132.69;;;6.04;100.00
20043;BME280;10182;52.896;6.496;2023-04-25T07:59:49;101143.16;;;5.62;100.00
20043;BME280;10182;52.896;6.496;2023-04-25T08:04:50;101149.66;;;5.41;100.00
20043;BME280;10182;52.896;6.496;2023-04-25T08:09:53;101155.13;;;5.32;100.00
20043;BME280;10182;52.896;6.496;2023-04-25T08:14:55;101176.00;;;5.83;100.00
20043;BME280;10182;52.896;6.496;2023-04-25T08:19:57;101170.66;;;6.32;100.00
20043;BME280;10182;52.896;6.496;2023-04-25T08:25:00;101177.31;;;6.48;100.00
20043;BME280;10182;52.896;6.496;2023-04-25T08:30:02;101159.63;;;6.55;100.00
20043;BME280;10182;52.896;6.496;2023-04-25T08:35:05;101169.91;;;6.64;100.00
20043;BME280;10182;52.896;6.496;2023-04-25T08:40:11;101171.88;;;6.93;100.00
20043;BME280;10182;52.896;6.496;2023-04-25T08:45:13;101179.47;;;7.06;100.00
20043;BME280;10182;52.896;6.496;2023-04-25T08:50:15;101173.28;;;7.41;100.00
20043;BME280;10182;52.896;6.496;2023-04-25T08:55:21;101188.25;;;7.05;100.00
20043;BME280;10182;52.896;6.496;2023-04-25T09:00:23;101184.63;;;7.45;100.00
20043;BME280;10182;52.896;6.496;2023-04-25T09:05:25;101194.41;;;7.40;100.00
20043;BME280;10182;52.896;6.496;2023-04-25T09:10:30;101249.50;;;6.36;100.00
20043;BME280;10182;52.896;6.496;2023-04-25T09:15:32;101257.94;;;4.46;100.00
20043;BME280;10182;52.896;6.496;2023-04-25T09:20:41;101253.78;;;4.30;100.00
20043;BME280;10182;52.896;6.496;2023-04-25T09:25:47;101254.19;;;4.64;100.00
20043;BME280;10182;52.896;6.496;2023-04-25T09:30:48;101255.38;;;5.02;100.00
20043;BME280;10182;52.896;6.496;2023-04-25T09:35:50;101258.19;;;5.46;100.00
20043;BME280;10182;52.896;6.496;2023-04-25T09:40:57;101240.72;;;5.90;100.00
20043;BME280;10182;52.896;6.496;2023-04-25T09:45:58;101259.31;;;6.70;100.00
20043;BME280;10182;52.896;6.496;2023-04-25T09:51:05;101262.50;;;6.83;100.00
20043;BME280;10182;52.896;6.496;2023-04-25T09:56:09;101290.69;;;5.92;100.00
20043;BME280;10182;52.896;6.496;2023-04-25T10:01:11;101284.97;;;5.14;100.00
20043;BME280;10182;52.896;6.496;2023-04-25T10:06:17;101283.44;;;5.00;100.00
20043;BME280;10182;52.896;6.496;2023-04-25T10:11:23;101280.50;;;5.20;100.00
20043;BME280;10182;52.896;6.496;2023-04-25T10:16:26;101283.97;;;5.75;100.00
20043;BME280;10182;52.896;6.496;2023-04-25T10:21:31;101284.41;;;6.44;100.00
20043;BME280;10182;52.896;6.496;2023-04-25T10:26:36;101262.53;;;7.21;100.00
20043;BME280;10182;52.896;6.496;2023-04-25T10:31:45;101261.31;;;7.34;100.00
20043;BME280;10182;52.896;6.496;2023-04-25T10:36:50;101268.25;;;7.38;100.00
20043;BME280;10182;52.896;6.496;2023-04-25T10:41:56;101275.47;;;7.30;100.00
20043;BME280;10182;52.896;6.496;2023-04-25T10:46:59;101283.44;;;6.89;100.00
20043;BME280;10182;52.896;6.496;2023-04-25T10:52:11;101276.34;;;7.31;100.00
20043;BME280;10182;52.896;6.496;2023-04-25T10:57:31;101280.41;;;7.78;100.00
20043;BME280;10182;52.896;6.496;2023-04-25T11:02:37;101292.03;;;7.71;100.00
20043;BME280;10182;52.896;6.496;2023-04-25T11:07:46;101301.94;;;7.25;100.00
20043;BME280;10182;52.896;6.496;2023-04-25T11:12:52;101291.13;;;7.36;100.00
20043;BME280;10182;52.896;6.496;2023-04-25T11:17:54;101312.13;;;7.39;100.00
20043;BME280;10182;52.896;6.496;2023-04-25T11:22:57;101321.78;;;7.75;100.00
20043;BME280;10182;52.896;6.496;2023-04-25T11:28:01;101323.22;;;7.88;100.00
20043;BME280;10182;52.896;6.496;2023-04-25T11:33:03;101331.81;;;7.26;100.00
20043;BME280;10182;52.896;6.496;2023-04-25T11:38:05;101339.06;;;6.75;100.00
20043;BME280;10182;52.896;6.496;2023-04-25T11:43:09;101342.22;;;6.49;100.00
20043;BME280;10182;52.896;6.496;2023-04-25T11:48:10;101345.94;;;7.22;100.00
20043;BME280;10182;52.896;6.496;2023-04-25T11:53:12;101353.53;;;7.36;100.00
20043;BME280;10182;52.896;6.496;2023-04-25T11:58:15;101369.50;;;6.87;100.00
20043;BME280;10182;52.896;6.496;2023-04-25T12:03:17;101363.47;;;6.84;100.00
20043;BME280;10182;52.896;6.496;2023-04-25T12:08:19;101361.41;;;7.37;100.00
20043;BME280;10182;52.896;6.496;2023-04-25T12:13:24;101375.63;;;6.89;100.00
20043;BME280;10182;52.896;6.496;2023-04-25T12:18:26;101377.63;;;6.33;100.00
20043;BME280;10182;52.896;6.496;2023-04-25T12:23:28;101377.63;;;6.33;100.00
20043;BME280;10182;52.896;6.496;2023-04-25T12:28:32;101382.22;;;7.48;100.00
20043;BME280;10182;52.896;6.496;2023-04-25T12:33:36;101421.38;;;6.40;100.00
20043;BME280;10182;52.896;6.496;2023-04-25T12:38:39;101401.63;;;5.59;100.00
20043;BME280;10182;52.896;6.496;2023-04-25T12:43:42;101403.22;;;5.71;100.00
20043;BME280;10182;52.896;6.496;2023-04-25T12:48:43;101401.78;;;6.55;100.00
20043;BME280;10182;52.896;6.496;2023-04-25T12:53:53;101391.47;;;7.28;100.00
20043;BME280;10182;52.896;6.496;2023-04-25T12:58:55;101395.09;;;7.23;100.00
20043;BME280;10182;52.896;6.496;2023-04-25T13:03:57;101391.09;;;7.05;100.00
20043;BME280;10182;52.896;6.496;2023-04-25T13:09:00;101383.72;;;7.21;100.00
20043;BME280;10182;52.896;6.496;2023-04-25T13:14:02;101390.13;;;7.48;100.00
20043;BME280;10182;52.896;6.496;2023-04-25T13:19:04;101379.19;;;7.65;100.00
20043;BME280;10182;52.896;6.496;2023-04-25T13:24:09;101367.50;;;7.75;100.00
20043;BME280;10182;52.896;6.496;2023-04-25T13:29:10;101384.03;;;7.46;100.00
20043;BME280;10182;52.896;6.496;2023-04-25T13:34:12;101394.41;;;7.54;100.00
20043;BME280;10182;52.896;6.496;2023-04-25T13:39:15;101386.06;;;7.71;100.00
20043;BME280;10182;52.896;6.496;2023-04-25T13:44:17;101379.28;;;7.96;100.00
20043;BME280;10182;52.896;6.496;2023-04-25T13:49:18;101386.31;;;8.30;100.00
20043;BME280;10182;52.896;6.496;2023-04-25T13:54:21;101408.34;;;7.95;100.00
20043;BME280;10182;52.896;6.496;2023-04-25T13:59:23;101408.84;;;7.37;100.00
20043;BME280;10182;52.896;6.496;2023-04-25T14:04:25;101406.88;;;7.45;100.00
20043;BME280;10182;52.896;6.496;2023-04-25T14:09:29;101412.03;;;7.50;100.00
20043;BME280;10182;52.896;6.496;2023-04-25T14:14:31;101411.75;;;8.00;100.00
20043;BME280;10182;52.896;6.496;2023-04-25T14:19:32;101432.75;;;7.67;100.00
20043;BME280;10182;52.896;6.496;2023-04-25T14:24:35;101432.81;;;6.83;100.00
20043;BME280;10182;52.896;6.496;2023-04-25T14:29:37;101431.47;;;6.63;100.00
20043;BME280;10182;52.896;6.496;2023-04-25T14:34:39;101430.53;;;6.64;100.00
20043;BME280;10182;52.896;6.496;2023-04-25T14:39:42;101437.94;;;7.31;100.00
20043;BME280;10182;52.896;6.496;2023-04-25T14:44:44;101432.84;;;7.62;100.00
20043;BME280;10182;52.896;6.496;2023-04-25T14:49:45;101445.94;;;7.28;100.00
20043;BME280;10182;52.896;6.496;2023-04-25T14:54:55;101442.75;;;7.14;100.00
20043;BME280;10182;52.896;6.496;2023-04-25T14:59:57;101440.53;;;7.34;100.00
20043;BME280;10182;52.896;6.496;2023-04-25T15:04:58;101452.69;;;7.41;100.00
20043;BME280;10182;52.896;6.496;2023-04-25T15:10:02;101444.75;;;7.81;100.00
20043;BME280;10182;52.896;6.496;2023-04-25T15:15:06;101440.34;;;7.81;100.00
20043;BME280;10182;52.896;6.496;2023-04-25T15:20:13;101444.50;;;7.91;100.00
20043;BME280;10182;52.896;6.496;2023-04-25T15:25:16;101454.31;;;7.47;100.00
20043;BME280;10182;52.896;6.496;2023-04-25T15:30:18;101466.66;;;7.43;100.00
20043;BME280;10182;52.896;6.496;2023-04-25T15:35:20;101466.91;;;7.34;100.00
20043;BME280;10182;52.896;6.496;2023-04-25T15:40:23;101505.41;;;7.41;100.00
20043;BME280;10182;52.896;6.496;2023-04-25T15:45:25;101496.38;;;6.63;100.00
20043;BME280;10182;52.896;6.496;2023-04-25T15:50:27;101487.41;;;6.74;100.00
20043;BME280;10182;52.896;6.496;2023-04-25T15:55:30;101487.28;;;6.81;100.00
20043;BME280;10182;52.896;6.496;2023-04-25T16:00:33;101481.88;;;6.88;100.00
20043;BME280;10182;52.896;6.496;2023-04-25T16:05:37;101470.31;;;6.95;100.00
20043;BME280;10182;52.896;6.496;2023-04-25T16:10:40;101483.16;;;7.13;100.00
20043;BME280;10182;52.896;6.496;2023-04-25T16:15:42;101491.03;;;6.69;100.00
20043;BME280;10182;52.896;6.496;2023-04-25T16:20:44;101502.13;;;6.36;100.00
20043;BME280;10182;52.896;6.496;2023-04-25T16:25:47;101495.91;;;6.40;100.00
20043;BME280;10182;52.896;6.496;2023-04-25T16:30:50;101489.72;;;6.43;100.00
20043;BME280;10182;52.896;6.496;2023-04-25T16:35:51;101494.06;;;6.46;100.00
20043;BME280;10182;52.896;6.496;2023-04-25T16:40:54;101490.41;;;6.54;100.00
20043;BME280;10182;52.896;6.496;2023-04-25T16:45:56;101497.78;;;6.34;100.00
20043;BME280;10182;52.896;6.496;2023-04-25T16:50:58;101502.97;;;6.37;100.00
20043;BME280;10182;52.896;6.496;2023-04-25T16:56:01;101498.44;;;6.47;100.00
20043;BME280;10182;52.896;6.496;2023-04-25T17:01:03;101501.78;;;6.56;100.00
20043;BME280;10182;52.896;6.496;2023-04-25T17:06:06;101502.56;;;6.60;100.00
20043;BME280;10182;52.896;6.496;2023-04-25T17:11:09;101502.59;;;6.58;100.00
20043;BME280;10182;52.896;6.496;2023-04-25T17:16:11;101506.69;;;6.75;100.00
20043;BME280;10182;52.896;6.496;2023-04-25T17:21:15;101507.59;;;6.75;100.00
20043;BME280;10182;52.896;6.496;2023-04-25T17:26:19;101513.78;;;6.73;100.00
20043;BME280;10182;52.896;6.496;2023-04-25T17:31:21;101517.75;;;6.46;100.00
20043;BME280;10182;52.896;6.496;2023-04-25T17:36:23;101525.66;;;6.46;100.00
20043;BME280;10182;52.896;6.496;2023-04-25T17:41:26;101522.91;;;6.52;100.00
20043;BME280;10182;52.896;6.496;2023-04-25T17:46:28;101523.81;;;6.49;100.00
20043;BME280;10182;52.896;6.496;2023-04-25T17:51:30;101527.41;;;6.45;100.00
20043;BME280;10182;52.896;6.496;2023-04-25T17:56:34;101533.63;;;6.42;100.00
20043;BME280;10182;52.896;6.496;2023-04-25T18:01:36;101541.81;;;6.22;100.00
20043;BME280;10182;52.896;6.496;2023-04-25T18:06:38;101560.34;;;6.15;100.00
20043;BME280;10182;52.896;6.496;2023-04-25T18:11:41;101556.06;;;6.09;100.00
20043;BME280;10182;52.896;6.496;2023-04-25T18:16:43;101566.78;;;5.93;100.00
20043;BME280;10182;52.896;6.496;2023-04-25T18:21:45;101562.53;;;5.82;100.00
20043;BME280;10182;52.896;6.496;2023-04-25T18:26:49;101575.97;;;5.60;100.00
20043;BME280;10182;52.896;6.496;2023-04-25T18:31:51;101579.53;;;5.56;100.00
20043;BME280;10182;52.896;6.496;2023-04-25T18:36:53;101590.34;;;5.30;100.00
20043;BME280;10182;52.896;6.496;2023-04-25T18:41:57;101607.09;;;5.21;100.00
20043;BME280;10182;52.896;6.496;2023-04-25T18:46:58;101605.41;;;5.14;100.00
20043;BME280;10182;52.896;6.496;2023-04-25T18:52:00;101616.91;;;4.99;100.00
20043;BME280;10182;52.896;6.496;2023-04-25T18:57:04;101613.47;;;4.97;100.00
20043;BME280;10182;52.896;6.496;2023-04-25T19:02:06;101618.84;;;4.83;100.00
20043;BME280;10182;52.896;6.496;2023-04-25T19:07:08;101620.75;;;4.62;100.00
20043;BME280;10182;52.896;6.496;2023-04-25T19:12:11;101633.16;;;4.40;100.00
20043;BME280;10182;52.896;6.496;2023-04-25T19:17:15;101636.69;;;4.34;100.00
20043;BME280;10182;52.896;6.496;2023-04-25T19:22:17;101647.19;;;4.34;100.00
20043;BME280;10182;52.896;6.496;2023-04-25T19:27:21;101649.84;;;4.28;100.00
20043;BME280;10182;52.896;6.496;2023-04-25T19:32:22;101649.91;;;4.17;100.00
20043;BME280;10182;52.896;6.496;2023-04-25T19:37:24;101646.47;;;4.07;100.00
20043;BME280;10182;52.896;6.496;2023-04-25T19:42:28;101643.03;;;3.99;100.00
20043;BME280;10182;52.896;6.496;2023-04-25T19:47:33;101644.75;;;4.02;100.00
20043;BME280;10182;52.896;6.496;2023-04-25T19:52:37;101651.75;;;4.00;100.00
20043;BME280;10182;52.896;6.496;2023-04-25T19:57:41;101657.03;;;3.90;100.00
20043;BME280;10182;52.896;6.496;2023-04-25T20:02:43;101660.56;;;3.82;100.00
20043;BME280;10182;52.896;6.496;2023-04-25T20:07:45;101662.31;;;3.78;100.00
20043;BME280;10182;52.896;6.496;2023-04-25T20:12:49;101684.09;;;3.97;100.00
20043;BME280;10182;52.896;6.496;2023-04-25T20:17:50;101669.28;;;3.85;100.00
20043;BME280;10182;52.896;6.496;2023-04-25T20:22:52;101663.16;;;3.86;100.00
20043;BME280;10182;52.896;6.496;2023-04-25T20:27:56;101664.03;;;3.92;100.00
20043;BME280;10182;52.896;6.496;2023-04-25T20:32:59;101662.25;;;3.98;100.00
20043;BME280;10182;52.896;6.496;2023-04-25T20:38:01;101659.63;;;4.00;100.00
20043;BME280;10182;52.896;6.496;2023-04-25T20:43:04;101654.34;;;4.01;100.00
20043;BME280;10182;52.896;6.496;2023-04-25T20:48:06;101651.75;;;4.00;100.00
20043;BME280;10182;52.896;6.496;2023-04-25T20:53:07;101651.75;;;3.94;100.00
20043;BME280;10182;52.896;6.496;2023-04-25T20:58:11;101642.16;;;3.89;100.00
20043;BME280;10182;52.896;6.496;2023-04-25T21:03:14;101651.81;;;3.87;100.00
20043;BME280;10182;52.896;6.496;2023-04-25T21:08:16;101649.19;;;3.81;100.00
20043;BME280;10182;52.896;6.496;2023-04-25T21:13:20;101648.34;;;3.79;100.00
20043;BME280;10182;52.896;6.496;2023-04-25T21:18:22;101641.41;;;3.70;100.00
20043;BME280;10182;52.896;6.496;2023-04-25T21:23:23;101652.78;;;3.60;100.00
20043;BME280;10182;52.896;6.496;2023-04-25T21:28:27;101643.22;;;3.53;100.00
20043;BME280;10182;52.896;6.496;2023-04-25T21:33:29;101647.59;;;3.45;100.00
20043;BME280;10182;52.896;6.496;2023-04-25T21:38:30;101653.69;;;3.37;100.00
20043;BME280;10182;52.896;6.496;2023-04-25T21:43:33;101656.31;;;3.36;100.00
20043;BME280;10182;52.896;6.496;2023-04-25T21:48:36;101663.34;;;3.26;100.00
20043;BME280;10182;52.896;6.496;2023-04-25T21:53:38;101656.38;;;3.17;100.00
20043;BME280;10182;52.896;6.496;2023-04-25T21:58:41;101665.09;;;3.15;100.00
20043;BME280;10182;52.896;6.496;2023-04-25T22:03:42;101663.34;;;3.06;100.00
20043;BME280;10182;52.896;6.496;2023-04-25T22:08:44;101666.84;;;3.00;100.00
20043;BME280;10182;52.896;6.496;2023-04-25T22:13:47;101667.72;;;2.98;100.00
20043;BME280;10182;52.896;6.496;2023-04-25T22:18:50;101660.75;;;2.91;100.00
20043;BME280;10182;52.896;6.496;2023-04-25T22:23:52;101665.09;;;2.85;100.00
20043;BME280;10182;52.896;6.496;2023-04-25T22:28:58;101675.59;;;2.78;100.00
20043;BME280;10182;52.896;6.496;2023-04-25T22:33:59;101674.72;;;2.71;100.00
20043;BME280;10182;52.896;6.496;2023-04-25T22:39:01;101677.31;;;2.73;100.00
20043;BME280;10182;52.896;6.496;2023-04-25T22:44:04;101694.75;;;2.66;100.00
20043;BME280;10182;52.896;6.496;2023-04-25T22:49:06;101695.63;;;2.73;100.00
20043;BME280;10182;52.896;6.496;2023-04-25T22:54:08;101688.66;;;2.79;100.00
20043;BME280;10182;52.896;6.496;2023-04-25T22:59:11;101689.53;;;2.87;100.00
20043;BME280;10182;52.896;6.496;2023-04-25T23:04:12;101693.03;;;2.88;100.00
20043;BME280;10182;52.896;6.496;2023-04-25T23:09:15;101693.03;;;2.88;100.00
20043;BME280;10182;52.896;6.496;2023-04-25T23:14:18;101697.38;;;2.92;100.00
20043;BME280;10182;52.896;6.496;2023-04-25T23:19:20;101690.44;;;2.93;100.00
20043;BME280;10182;52.896;6.496;2023-04-25T23:24:22;101696.53;;;2.93;100.00
20043;BME280;10182;52.896;6.496;2023-04-25T23:29:25;101693.88;;;2.87;100.00
20043;BME280;10182;52.896;6.496;2023-04-25T23:34:28;101693.91;;;2.76;100.00
20043;BME280;10182;52.896;6.496;2023-04-25T23:39:30;101691.28;;;2.64;100.00
20043;BME280;10182;52.896;6.496;2023-04-25T23:44:34;101690.38;;;2.49;100.00
20043;BME280;10182;52.896;6.496;2023-04-25T23:49:36;101699.06;;;2.37;100.00
20043;BME280;10182;52.896;6.496;2023-04-25T23:54:37;101698.16;;;2.25;100.00
20043;BME280;10182;52.896;6.496;2023-04-25T23:59:40;101705.97;;;2.15;100.00
